createdAt,value
2023-02-16T00:02:32.846Z,31.73
2023-02-16T00:05:31.286Z,29.98
2023-02-16T00:08:06.525Z,35.50
2023-02-16T00:11:10.393Z,31.30
2023-02-16T00:13:57.676Z,28.95
2023-02-16T00:16:39.205Z,33.13
2023-02-16T00:19:42.817Z,33.75
2023-02-16T00:22:19.515Z,30.20
2023-02-16T00:24:56.057Z,29.65
2023-02-16T00:27:39.928Z,28.15
2023-02-16T00:30:26.295Z,32.00
2023-02-16T00:33:24.270Z,31.90
2023-02-16T00:36:21.744Z,32.92
2023-02-16T00:39:25.691Z,35.17
2023-02-16T00:42:27.128Z,35.45
2023-02-16T00:45:30.132Z,36.10
2023-02-16T00:48:12.591Z,38.00
2023-02-16T00:50:58.480Z,32.08
2023-02-16T00:53:38.226Z,36.03
2023-02-16T00:56:35.361Z,32.35
2023-02-16T00:59:31.566Z,33.22
2023-02-16T01:02:09.164Z,31.52
2023-02-16T01:04:59.259Z,34.70
2023-02-16T01:07:59.400Z,31.67
2023-02-16T01:11:10.920Z,34.92
2023-02-16T01:13:58.649Z,30.60
2023-02-16T01:16:57.602Z,31.73
2023-02-16T01:19:47.687Z,40.17
2023-02-16T01:22:40.016Z,37.72
2023-02-16T01:25:21.420Z,34.38
2023-02-16T01:28:16.521Z,31.70
2023-02-16T01:31:14.483Z,44.65
2023-02-16T01:33:57.147Z,37.13
2023-02-16T01:36:42.299Z,38.55
2023-02-16T01:39:27.347Z,34.03
2023-02-16T01:42:29.907Z,35.10
2023-02-16T01:46:00.683Z,35.60
2023-02-16T01:48:41.272Z,34.60
2023-02-16T01:51:51.284Z,36.40
2023-02-16T01:54:49.789Z,38.30
2023-02-16T01:57:36.086Z,38.92
2023-02-16T02:00:52.132Z,42.70
2023-02-16T02:04:11.789Z,37.05
2023-02-16T02:06:52.201Z,35.53
2023-02-16T02:09:44.337Z,33.70
2023-02-16T02:12:59.254Z,38.83
2023-02-16T02:15:46.743Z,35.17
2023-02-16T02:18:49.070Z,39.42
2023-02-16T02:22:18.386Z,38.70
2023-02-16T02:25:22.239Z,34.78
2023-02-16T02:28:31.342Z,40.08
2023-02-16T02:31:39.150Z,40.00
2023-02-16T02:34:39.251Z,39.35
2023-02-16T02:37:50.917Z,34.10
2023-02-16T02:40:55.922Z,36.05
2023-02-16T02:44:02.287Z,41.97
2023-02-16T02:47:07.088Z,41.28
2023-02-16T02:50:04.010Z,36.05
2023-02-16T02:52:50.386Z,38.20
2023-02-16T02:56:07.097Z,42.80
2023-02-16T03:02:41.953Z,40.33
2023-02-16T03:05:13.977Z,45.22
2023-02-16T03:07:47.779Z,46.17
2023-02-16T03:10:45.094Z,45.35
2023-02-16T03:13:38.513Z,45.17
2023-02-16T03:16:13.963Z,41.83
2023-02-16T03:19:02.754Z,40.35
2023-02-16T03:22:04.905Z,45.85
2023-02-16T03:24:52.434Z,44.22
2023-02-16T03:27:56.521Z,46.22
2023-02-16T03:30:37.207Z,42.10
2023-02-16T03:33:11.419Z,48.27
2023-02-16T03:35:40.219Z,41.38
2023-02-16T03:38:09.419Z,39.08
2023-02-16T03:43:19.645Z,38.67
2023-02-16T03:46:04.863Z,41.35
2023-02-16T03:48:32.881Z,42.38
2023-02-16T03:51:04.526Z,41.72
2023-02-16T03:53:39.540Z,43.00
2023-02-16T03:56:12.890Z,42.92
2023-02-16T03:58:41.028Z,40.03
2023-02-16T04:01:09.442Z,43.78
2023-02-16T04:03:41.080Z,42.22
2023-02-16T04:06:10.838Z,41.97
2023-02-16T04:08:39.771Z,43.13
2023-02-16T04:11:31.420Z,41.92
2023-02-16T04:14:07.076Z,43.38
2023-02-16T04:16:40.712Z,37.75
2023-02-16T04:19:08.868Z,39.58
2023-02-16T04:21:39.787Z,37.42
2023-02-16T04:24:14.316Z,37.55
2023-02-16T04:26:46.374Z,40.28
2023-02-16T04:29:17.577Z,37.90
2023-02-16T04:31:48.858Z,35.60
2023-02-16T04:34:42.844Z,43.20
2023-02-16T04:37:12.087Z,37.92
2023-02-16T04:39:41.996Z,38.58
2023-02-16T04:42:18.891Z,37.20
2023-02-16T04:44:54.867Z,39.15
2023-02-16T04:47:30.615Z,38.25
2023-02-16T04:50:04.709Z,35.17
2023-02-16T04:52:59.511Z,40.15
2023-02-16T04:55:32.124Z,41.25
2023-02-16T04:58:25.208Z,36.80
2023-02-16T05:01:04.523Z,36.28
2023-02-16T05:03:37.593Z,35.85
2023-02-16T05:06:12.297Z,44.70
2023-02-16T05:08:44.715Z,35.00
2023-02-16T05:11:37.509Z,35.05
2023-02-16T05:14:24.058Z,32.95
2023-02-16T05:16:55.624Z,37.00
2023-02-16T05:19:23.529Z,40.42
2023-02-16T05:22:04.094Z,37.55
2023-02-16T05:24:33.291Z,38.53
2023-02-16T05:27:13.040Z,43.05
2023-02-16T05:29:42.391Z,35.13
2023-02-16T05:32:32.456Z,35.58
2023-02-16T05:35:00.911Z,38.00
2023-02-16T05:37:29.058Z,40.35
2023-02-16T05:39:57.417Z,38.15
2023-02-16T05:42:28.462Z,38.58
2023-02-16T05:44:59.747Z,40.67
2023-02-16T05:47:28.128Z,43.55
2023-02-16T05:50:01.484Z,35.75
2023-02-16T05:52:29.771Z,33.20
2023-02-16T05:55:00.259Z,39.05
2023-02-16T05:57:28.728Z,34.70
2023-02-16T05:59:57.019Z,38.30
2023-02-16T06:02:30.735Z,34.63
2023-02-16T06:05:03.301Z,36.53
2023-02-16T06:07:38.778Z,33.67
2023-02-16T06:10:14.869Z,34.05
2023-02-16T06:12:51.880Z,36.33
2023-02-16T06:15:23.777Z,34.72
2023-02-16T06:18:01.499Z,37.33
2023-02-16T06:20:33.585Z,34.88
2023-02-16T06:23:11.748Z,33.90
2023-02-16T06:25:45.323Z,35.90
2023-02-16T06:30:55.032Z,33.88
2023-02-16T06:33:23.139Z,32.85
2023-02-16T06:35:52.222Z,40.42
2023-02-16T06:38:23.730Z,31.42
2023-02-16T06:40:55.698Z,37.88
2023-02-16T06:43:27.181Z,39.72
2023-02-16T06:45:56.457Z,41.38
2023-02-16T06:48:24.703Z,32.42
2023-02-16T06:50:53.312Z,32.63
2023-02-16T06:53:21.221Z,35.60
2023-02-16T06:55:54.963Z,35.65
2023-02-16T07:00:50.198Z,38.28
2023-02-16T07:03:21.054Z,33.70
2023-02-16T07:05:50.049Z,40.20
2023-02-16T07:08:18.268Z,38.15
2023-02-16T07:10:51.311Z,36.72
2023-02-16T07:13:22.220Z,41.55
2023-02-16T07:15:53.222Z,36.55
2023-02-16T07:18:23.864Z,37.50
2023-02-16T07:20:55.030Z,41.42
2023-02-16T07:23:34.441Z,36.00
2023-02-16T07:26:04.995Z,37.95
2023-02-16T07:28:44.544Z,43.20
2023-02-16T07:31:16.817Z,32.55
2023-02-16T07:33:47.391Z,39.22
2023-02-16T07:36:29.448Z,44.78
2023-02-16T07:39:03.597Z,34.53
2023-02-16T07:41:34.630Z,36.72
2023-02-16T07:44:24.420Z,36.05
2023-02-16T07:49:56.624Z,48.75
2023-02-16T07:52:32.257Z,42.50
2023-02-16T07:55:18.755Z,38.88
2023-02-16T07:58:04.078Z,39.00
2023-02-16T08:03:47.459Z,42.85
2023-02-16T08:06:32.168Z,39.33
2023-02-16T08:09:15.509Z,37.83
2023-02-16T08:12:11.249Z,39.55
2023-02-16T08:15:08.387Z,42.67
2023-02-16T08:17:46.458Z,46.25
2023-02-16T08:20:45.170Z,38.40
2023-02-16T08:23:29.517Z,34.70
2023-02-16T08:25:59.545Z,40.42
2023-02-16T08:28:29.158Z,43.90
2023-02-16T08:34:12.422Z,32.63
2023-02-16T08:39:50.945Z,36.00
2023-02-16T08:42:30.082Z,38.22
2023-02-16T08:45:15.113Z,33.97
2023-02-16T08:47:44.938Z,38.63
2023-02-16T08:50:31.422Z,36.30
2023-02-16T08:53:30.930Z,37.03
2023-02-16T08:56:00.271Z,39.65
2023-02-16T08:58:28.250Z,40.00
2023-02-16T09:03:52.144Z,38.75
2023-02-16T09:06:23.356Z,36.50
2023-02-16T09:09:02.970Z,43.35
2023-02-16T09:11:55.588Z,35.28
2023-02-16T09:14:45.194Z,44.53
2023-02-16T09:17:24.017Z,32.63
2023-02-16T09:20:13.152Z,39.83
2023-02-16T09:22:55.951Z,38.22
2023-02-16T09:28:43.187Z,42.45
2023-02-16T09:31:48.897Z,31.90
2023-02-16T09:34:36.846Z,33.28
2023-02-16T09:37:29.688Z,38.63
2023-02-16T09:40:26.136Z,36.13
2023-02-16T09:43:30.043Z,34.53
2023-02-16T09:46:22.687Z,42.00
2023-02-16T09:48:58.884Z,38.97
2023-02-16T09:51:47.258Z,39.80
2023-02-16T09:54:35.186Z,34.90
2023-02-16T09:57:39.009Z,40.92
2023-02-16T10:00:45.611Z,36.60
2023-02-16T10:04:06.141Z,37.90
2023-02-16T10:07:02.453Z,36.00
2023-02-16T10:13:10.956Z,43.33
2023-02-16T10:15:44.533Z,37.80
2023-02-16T10:21:40.907Z,41.95
2023-02-16T10:27:13.106Z,45.05
2023-02-16T10:30:03.250Z,38.63
2023-02-16T10:33:16.185Z,36.45
2023-02-16T10:36:02.297Z,31.90
2023-02-16T10:42:10.143Z,35.38
2023-02-16T10:45:15.900Z,38.10
2023-02-16T10:48:19.189Z,43.40
2023-02-16T10:51:16.381Z,35.00
2023-02-16T10:54:02.925Z,35.75
2023-02-16T10:57:32.618Z,43.78
2023-02-16T11:03:48.390Z,35.90
2023-02-16T11:06:31.919Z,32.90
2023-02-16T11:09:18.884Z,37.45
2023-02-16T11:12:02.216Z,35.45
2023-02-16T11:14:42.266Z,37.80
2023-02-16T11:17:27.789Z,37.30
2023-02-16T11:20:26.066Z,39.08
2023-02-16T11:23:43.435Z,39.20
2023-02-16T11:26:12.391Z,34.65
2023-02-16T11:28:48.606Z,34.72
2023-02-16T11:31:40.340Z,38.65
2023-02-16T11:37:28.287Z,36.55
2023-02-16T11:40:26.739Z,37.97
2023-02-16T11:42:58.008Z,44.67
2023-02-16T11:45:38.935Z,44.53
2023-02-16T11:48:13.025Z,36.47
2023-02-16T11:51:03.465Z,35.70
2023-02-16T11:53:39.006Z,42.58
2023-02-16T11:56:31.363Z,38.45
2023-02-16T11:59:29.327Z,40.97
2023-02-16T12:02:21.300Z,39.33
2023-02-16T12:05:17.610Z,41.42
2023-02-16T12:07:51.851Z,40.88
2023-02-16T12:10:39.207Z,39.08
2023-02-16T12:13:41.767Z,35.75
2023-02-16T12:16:52.498Z,41.33
2023-02-16T12:19:48.558Z,48.38
2023-02-16T12:22:49.372Z,39.88
2023-02-16T12:26:18.260Z,38.22
2023-02-16T12:29:27.740Z,42.08
2023-02-16T12:32:33.080Z,42.85
2023-02-16T12:35:39.760Z,41.50
2023-02-16T12:38:32.321Z,53.47
2023-02-16T12:41:42.099Z,47.88
2023-02-16T12:44:33.824Z,41.40
2023-02-16T12:47:20.953Z,32.35
2023-02-16T12:50:24.261Z,33.00
2023-02-16T12:53:38.843Z,30.55
2023-02-16T12:56:25.447Z,35.47
2023-02-16T12:59:15.079Z,39.85
2023-02-16T13:01:51.731Z,42.20
2023-02-16T13:04:37.196Z,42.85
2023-02-16T13:07:41.682Z,32.92
2023-02-16T13:10:34.940Z,32.50
2023-02-16T13:13:18.710Z,31.80
2023-02-16T13:16:45.448Z,31.08
2023-02-16T13:20:01.653Z,28.93
2023-02-16T13:23:17.267Z,30.92
2023-02-16T13:29:29.817Z,22.48
2023-02-16T13:32:34.732Z,20.80
2023-02-16T13:35:26.753Z,15.50
2023-02-16T13:38:11.593Z,19.77
2023-02-16T13:41:03.963Z,14.73
2023-02-16T13:43:37.638Z,10.77
2023-02-16T13:49:06.885Z,14.07
2023-02-16T13:51:50.928Z,14.93
2023-02-16T13:54:44.328Z,10.23
2023-02-16T13:58:03.658Z,9.32
2023-02-16T14:04:00.937Z,14.63
2023-02-16T14:09:48.963Z,20.80
2023-02-16T14:12:37.905Z,20.15
2023-02-16T14:18:52.302Z,32.20
2023-02-16T14:21:46.535Z,24.23
2023-02-16T14:24:53.397Z,21.45
2023-02-16T14:30:57.540Z,25.65
2023-02-16T14:37:38.728Z,21.80
2023-02-16T14:40:59.656Z,23.35
2023-02-16T14:43:57.113Z,23.25
2023-02-16T14:46:56.546Z,22.52
2023-02-16T14:50:04.060Z,22.10
2023-02-16T14:53:16.518Z,25.65
2023-02-16T14:56:37.649Z,29.25
2023-02-16T14:59:33.308Z,25.02
2023-02-16T15:02:54.389Z,29.17
2023-02-16T15:05:53.090Z,23.52
2023-02-16T15:08:55.466Z,24.23
2023-02-16T15:12:09.700Z,17.17
2023-02-16T15:14:43.729Z,21.80
2023-02-16T15:17:48.279Z,11.07
2023-02-16T15:20:52.916Z,18.27
2023-02-16T15:27:02.967Z,19.63
2023-02-16T15:29:39.644Z,18.50
2023-02-16T15:32:12.461Z,15.02
2023-02-16T15:34:53.012Z,16.98
2023-02-16T15:37:43.856Z,19.33
2023-02-16T15:40:34.877Z,17.23
2023-02-16T15:43:31.327Z,18.10
2023-02-16T15:46:07.329Z,27.45
2023-02-16T15:51:25.691Z,10.93
2023-02-16T15:54:25.851Z,19.75
2023-02-16T15:57:16.196Z,11.85
2023-02-16T15:59:48.331Z,14.48
2023-02-16T16:02:16.075Z,15.07
2023-02-16T16:05:04.671Z,25.05
2023-02-16T16:07:41.609Z,13.13
2023-02-16T16:10:37.218Z,17.70
2023-02-16T16:13:21.206Z,14.82
2023-02-16T16:15:56.067Z,15.80
2023-02-16T16:18:51.813Z,18.13
2023-02-16T16:21:45.027Z,16.98
2023-02-16T16:24:21.390Z,13.75
2023-02-16T16:27:14.623Z,14.32
2023-02-16T16:29:58.229Z,12.30
2023-02-16T16:32:39.610Z,16.85
2023-02-16T16:35:35.102Z,17.23
2023-02-16T16:38:28.788Z,17.88
2023-02-16T16:41:04.769Z,14.05
2023-02-16T16:46:47.197Z,18.13
2023-02-16T16:49:23.839Z,17.38
2023-02-16T16:52:16.397Z,18.13
2023-02-16T16:54:54.782Z,16.92
2023-02-16T16:57:55.740Z,18.85
2023-02-16T17:00:42.625Z,25.20
2023-02-16T17:03:30.472Z,19.98
2023-02-16T17:06:11.612Z,20.42
2023-02-16T17:08:56.461Z,22.42
2023-02-16T17:11:39.796Z,24.83
2023-02-16T17:17:09.492Z,26.65
2023-02-16T17:19:42.506Z,24.52
2023-02-16T17:22:26.950Z,29.00
2023-02-16T17:24:55.383Z,29.27
2023-02-16T17:27:33.385Z,20.90
2023-02-16T17:30:17.526Z,28.10
2023-02-16T17:32:53.766Z,30.52
2023-02-16T17:35:26.029Z,29.08
2023-02-16T17:37:58.777Z,35.67
2023-02-16T17:40:27.724Z,27.15
2023-02-16T17:43:02.262Z,29.55
2023-02-16T17:45:33.136Z,32.38
2023-02-16T17:50:57.298Z,34.78
2023-02-16T17:53:46.568Z,31.50
2023-02-16T17:56:26.575Z,29.50
2023-02-16T17:59:05.754Z,27.35
2023-02-16T18:01:39.318Z,28.08
2023-02-16T18:04:16.263Z,36.47
2023-02-16T18:07:03.756Z,31.33
2023-02-16T18:09:41.306Z,34.17
2023-02-16T18:15:29.724Z,35.25
2023-02-16T18:18:05.417Z,29.73
2023-02-16T18:20:49.379Z,28.08
2023-02-16T18:23:23.964Z,25.05
2023-02-16T18:26:10.788Z,33.45
2023-02-16T18:31:31.656Z,34.67
2023-02-16T18:34:06.278Z,30.08
2023-02-16T18:36:44.315Z,33.45
2023-02-16T18:39:28.059Z,30.70
2023-02-16T18:44:28.500Z,31.95
2023-02-16T18:47:02.136Z,29.77
2023-02-16T18:52:19.171Z,35.97
2023-02-16T18:54:50.022Z,34.92
2023-02-16T18:57:29.630Z,34.85
2023-02-16T19:00:00.353Z,38.70
2023-02-16T19:02:32.920Z,39.42
2023-02-16T19:05:09.822Z,35.95
2023-02-16T19:07:59.151Z,30.98
2023-02-16T19:10:33.605Z,33.47
2023-02-16T19:13:10.050Z,45.45
2023-02-16T19:15:44.058Z,35.58
2023-02-16T19:18:36.135Z,33.75
2023-02-16T19:21:10.432Z,33.15
2023-02-16T19:23:48.204Z,30.83
2023-02-16T19:26:29.636Z,33.28
2023-02-16T19:29:02.860Z,36.97
2023-02-16T19:31:37.669Z,32.40
2023-02-16T19:34:18.203Z,31.25
2023-02-16T19:37:00.777Z,35.50
2023-02-16T19:39:58.064Z,30.60
2023-02-16T19:42:40.509Z,29.40
2023-02-16T19:45:20.615Z,32.00
2023-02-16T19:48:04.578Z,28.40
2023-02-16T19:50:41.117Z,30.10
2023-02-16T19:56:27.494Z,33.47
2023-02-16T19:58:58.458Z,25.52
2023-02-16T20:01:51.049Z,28.80
2023-02-16T20:04:38.992Z,29.75
2023-02-16T20:10:09.721Z,29.85
2023-02-16T20:12:57.256Z,29.77
2023-02-16T20:15:28.709Z,30.85
2023-02-16T20:18:12.804Z,33.90
2023-02-16T20:21:33.739Z,37.13
2023-02-16T20:24:15.323Z,33.88
2023-02-16T20:27:06.554Z,35.67
2023-02-16T20:29:42.327Z,38.47
2023-02-16T20:32:32.911Z,39.75
2023-02-16T20:35:17.144Z,39.90
2023-02-16T20:37:54.459Z,38.47
2023-02-16T20:40:39.918Z,42.97
2023-02-16T20:43:23.074Z,38.63
2023-02-16T20:46:09.911Z,43.20
2023-02-16T20:48:43.306Z,48.05
2023-02-16T20:51:24.626Z,44.47
2023-02-16T20:54:05.818Z,45.88
2023-02-16T20:56:40.099Z,38.80
2023-02-16T20:59:44.964Z,46.10
2023-02-16T21:02:22.892Z,39.95
2023-02-16T21:04:59.043Z,40.65
2023-02-16T21:07:37.801Z,44.25
2023-02-16T21:10:28.944Z,53.92
2023-02-16T21:13:22.010Z,45.88
2023-02-16T21:16:00.578Z,52.53
2023-02-16T21:18:40.630Z,40.50
2023-02-16T21:21:54.399Z,41.88
2023-02-16T21:24:31.416Z,50.97
2023-02-16T21:27:03.332Z,45.10
2023-02-16T21:29:42.087Z,50.90
2023-02-16T21:32:34.758Z,55.90
2023-02-16T21:35:26.263Z,48.85
2023-02-16T21:38:04.768Z,49.17
2023-02-16T21:44:15.065Z,42.78
2023-02-16T21:46:47.954Z,45.03
2023-02-16T21:49:55.231Z,37.60
2023-02-16T21:52:59.004Z,48.63
2023-02-16T22:01:56.327Z,40.42
2023-02-16T22:04:34.007Z,41.25
2023-02-16T22:07:27.375Z,43.90
2023-02-16T22:10:32.215Z,37.27
2023-02-16T22:13:08.913Z,41.75
2023-02-16T22:15:43.221Z,46.85
2023-02-16T22:18:18.660Z,42.20
2023-02-16T22:20:57.704Z,47.20
2023-02-16T22:23:45.662Z,42.70
2023-02-16T22:26:54.307Z,43.92
2023-02-16T22:29:27.369Z,46.97
2023-02-16T22:31:59.907Z,45.17
2023-02-16T22:34:44.512Z,43.42
2023-02-16T22:37:14.671Z,52.67
2023-02-16T22:39:45.125Z,45.67
2023-02-16T22:42:12.425Z,44.45
2023-02-16T22:44:47.776Z,39.13
2023-02-16T22:47:20.930Z,43.33
2023-02-16T22:49:50.396Z,42.50
2023-02-16T22:55:10.860Z,42.13
2023-02-16T22:57:46.827Z,45.50
2023-02-16T23:00:17.759Z,42.78
2023-02-16T23:02:51.046Z,43.80
2023-02-16T23:05:23.845Z,44.53
2023-02-16T23:08:27.354Z,42.17
2023-02-16T23:14:17.487Z,46.35
2023-02-16T23:17:00.573Z,45.90
2023-02-16T23:19:51.424Z,43.25
2023-02-16T23:22:58.822Z,62.17
2023-02-16T23:28:08.837Z,49.35
2023-02-16T23:30:56.319Z,46.97
2023-02-16T23:33:32.644Z,52.10
2023-02-16T23:36:13.205Z,53.38
2023-02-16T23:38:47.541Z,53.25
2023-02-16T23:41:29.581Z,46.40
2023-02-16T23:44:12.416Z,47.42
2023-02-16T23:46:58.215Z,45.83
2023-02-16T23:49:31.709Z,51.53
2023-02-16T23:52:15.852Z,43.33
2023-02-16T23:54:55.561Z,51.08
2023-02-16T23:57:30.995Z,46.33
